Time;durP1;ratioP1;P1;durP2;ratioP2;P2;SDS_P1;SDS_P2;PMS_P1;PMS_P2;Temp;Humidity;BMP_temperature;BMP_pressure;BME280_temperature;BME280_humidity;BME280_pressure;Samples;Min_cycle;Max_cycle;Signal;HPM_P1;HPM_P2
2022/09/09 00:00:22;;;;;;;;;;;17.90;73.50;;;17.16;67.60;96224.69;4178613;34;19903;-84
2022/09/09 00:02:57;;;;;;;;;;;17.90;73.50;;;17.15;67.45;96223.03;4178493;33;19911;-84
2022/09/09 00:05:32;;;;;;;;;;;17.90;73.40;;;17.16;67.57;96221.09;4179518;34;19903;-83
2022/09/09 00:08:03;;;;;;;;;;;17.90;73.50;;;17.16;67.53;96227.44;4201307;33;19945;-83
2022/09/09 00:10:35;;;;;;;;;;;17.90;73.40;;;17.16;67.49;96212.81;4178449;34;19903;-83
2022/09/09 00:13:15;;;;;;;;;;;17.90;73.40;;;17.15;67.50;96211.97;4178525;33;20125;-84
2022/09/09 00:15:52;;;;;;;;;;;17.90;73.40;;;17.16;67.63;96223.88;4178301;34;19911;-83
2022/09/09 00:18:25;;;;;;;;;;;17.90;73.50;;;17.16;67.51;96223.88;4178027;34;20130;-84
2022/09/09 00:20:57;;;;;;;;;;;17.90;73.40;;;17.15;67.15;96220.28;4201659;33;19903;-83
2022/09/09 00:23:26;;;;;;;;;;;17.90;73.50;;;17.16;67.57;96230.22;4179258;33;20037;-83
2022/09/09 00:26:04;;;;;;;;;;;17.90;73.40;;;17.15;67.63;96234.09;4179276;34;19903;-83
2022/09/09 00:28:39;;;;;;;;;;;17.90;73.40;;;17.15;67.61;96228.56;4177685;34;19932;-83
2022/09/09 00:31:13;;;;;;;;;;;17.90;73.40;;;17.15;67.63;96227.78;4155406;33;19929;-83
2022/09/09 00:33:42;;;;;;;;;;;17.90;73.40;;;17.14;67.83;96221.41;4201467;33;19903;-83
2022/09/09 00:36:15;;;;;;;;;;;17.90;73.30;;;17.14;67.51;96215.88;4179292;34;20064;-83
2022/09/09 00:38:46;;;;;;;;;;;17.90;73.20;;;17.13;67.22;96219.75;4178771;34;19915;-83
2022/09/09 00:41:20;;;;;;;;;;;17.90;73.20;;;17.13;67.44;96214.22;4179210;33;19963;-83
2022/09/09 00:43:58;;;;;;;;;;;17.90;73.20;;;17.14;67.37;96213.09;4201226;33;20130;-83
2022/09/09 00:46:57;;;;;;;;;;;17.90;73.20;;;17.12;67.28;96215.34;4179215;34;20133;-83
2022/09/09 00:49:37;;;;;;;;;;;17.90;73.20;;;17.13;67.28;96214.22;4201403;33;20151;-83
2022/09/09 00:52:18;;;;;;;;;;;17.90;73.20;;;17.13;67.31;96218.97;4177936;33;19951;-83
2022/09/09 00:54:50;;;;;;;;;;;17.90;73.20;;;17.12;67.23;96218.13;4178063;34;19903;-83
2022/09/09 00:57:27;;;;;;;;;;;17.90;73.30;;;17.13;67.29;96222.53;4177498;34;20392;-83
2022/09/09 01:00:21;;;;;;;;;;;17.80;73.00;;;17.12;67.33;96220.09;4201087;33;19903;-83
2022/09/09 01:03:24;;;;;;;;;;;17.90;73.20;;;17.12;67.44;96218.13;4178758;33;20063;-83
2022/09/09 01:06:02;;;;;;;;;;;17.90;73.30;;;17.09;67.30;96210.47;4177831;34;20596;-83
2022/09/09 01:08:50;;;;;;;;;;;17.80;73.10;;;17.11;67.34;96208.19;4177524;34;20112;-83
2022/09/09 01:11:22;;;;;;;;;;;17.80;73.10;;;17.11;67.33;96212.91;4201070;33;20130;-84
2022/09/09 01:13:58;;;;;;;;;;;17.80;73.10;;;17.11;67.29;96216.50;4177834;34;19907;-84
2022/09/09 01:16:29;;;;;;;;;;;17.80;73.10;;;17.09;67.33;96199.41;4201288;33;19948;-83
2022/09/09 01:18:57;;;;;;;;;;;17.80;73.10;;;17.11;67.36;96207.38;4178155;34;20137;-83
2022/09/09 01:21:34;;;;;;;;;;;17.90;73.10;;;17.08;67.24;96208.84;4177826;33;20160;-83
2022/09/09 01:24:15;;;;;;;;;;;17.80;73.00;;;17.09;67.33;96199.41;4154835;34;20234;-83
2022/09/09 01:27:17;;;;;;;;;;;17.90;73.30;;;17.09;67.13;96204.94;4172182;34;19904;-83
2022/09/09 01:29:46;;;;;;;;;;;17.80;73.10;;;17.09;67.40;96204.09;4200878;33;20008;-83
2022/09/09 01:32:43;;;;;;;;;;;17.80;73.20;;;17.09;67.36;96209.63;4177631;33;19905;-83
2022/09/09 01:35:14;;;;;;;;;;;17.80;73.20;;;17.08;67.73;96213.53;4200988;33;20048;-83
2022/09/09 01:37:43;;;;;;;;;;;17.80;73.20;;;17.08;67.39;96217.13;4177022;34;20215;-83
2022/09/09 01:40:12;;;;;;;;;;;17.80;73.20;;;17.07;67.47;96209.97;4177461;34;19910;-84
2022/09/09 01:42:43;;;;;;;;;;;17.80;73.20;;;17.06;67.65;96208.31;4177312;33;19903;-83
2022/09/09 01:45:11;;;;;;;;;;;17.80;73.20;;;17.08;67.38;96216.31;4177483;34;20129;-83
2022/09/09 01:47:40;;;;;;;;;;;17.80;73.20;;;17.07;67.43;96209.97;4200218;33;20210;-84
2022/09/09 01:50:18;;;;;;;;;;;17.80;73.20;;;17.06;67.39;96208.31;4200725;33;19910;-83
2022/09/09 01:52:50;;;;;;;;;;;17.80;73.20;;;17.07;67.44;96214.66;4177260;33;19910;-83
2022/09/09 01:55:31;;;;;;;;;;;17.80;73.10;;;17.07;67.50;96209.97;4200688;33;20130;-83
2022/09/09 01:58:18;;;;;;;;;;;17.80;73.20;;;17.07;67.47;96211.91;4200138;33;20070;-83
2022/09/09 02:00:57;;;;;;;;;;;17.80;73.30;;;17.05;67.54;96206.69;4177525;34;19910;-83
2022/09/09 02:03:28;;;;;;;;;;;17.80;73.20;;;17.06;67.47;96219.38;4200352;33;19943;-83
2022/09/09 02:06:09;;;;;;;;;;;17.80;73.20;;;17.06;67.30;96204.72;4149820;34;19911;-83
2022/09/09 02:08:43;;;;;;;;;;;17.80;73.20;;;17.06;67.43;96208.31;4149077;34;20393;-83
2022/09/09 02:11:14;;;;;;;;;;;17.80;73.30;;;17.05;67.42;96206.69;4149818;34;20130;-83
2022/09/09 02:14:07;;;;;;;;;;;17.80;73.30;;;17.04;67.39;96207.81;4150355;34;19911;-83
2022/09/09 02:16:40;;;;;;;;;;;17.80;73.20;;;17.04;67.47;96205.06;4149813;34;20094;-83
2022/09/09 02:19:13;;;;;;;;;;;17.80;73.30;;;17.04;67.31;96207.81;4149171;34;20211;-83
2022/09/09 02:22:04;;;;;;;;;;;17.80;73.30;;;17.04;67.49;96216.13;4100113;34;20351;-83
2022/09/09 02:24:36;;;;;;;;;;;17.80;73.40;;;17.05;67.56;96219.69;4157413;34;20226;-83
2022/09/09 02:27:16;;;;;;;;;;;17.80;73.20;;;17.03;67.46;96214.47;4199820;33;19978;-84
2022/09/09 02:29:47;;;;;;;;;;;17.80;73.30;;;17.04;67.37;96209.78;4177139;34;20149;-84
2022/09/09 02:32:18;;;;;;;;;;;17.80;73.10;;;17.02;67.32;96210.91;4177215;33;20246;-83
2022/09/09 02:34:48;;;;;;;;;;;17.80;73.20;;;17.04;67.43;96212.53;4200157;33;19911;-83
2022/09/09 02:37:20;;;;;;;;;;;17.80;73.30;;;17.03;67.49;96206.19;4176651;34;19904;-83
2022/09/09 02:39:51;;;;;;;;;;;17.80;73.40;;;17.03;67.43;96200.66;4154056;34;19903;-83
2022/09/09 02:42:23;;;;;;;;;;;17.80;73.30;;;17.02;67.46;96197.06;4176905;33;20107;-83
2022/09/09 02:44:55;;;;;;;;;;;17.80;73.20;;;17.01;67.59;96194.59;4176858;34;20035;-84
2022/09/09 02:47:31;;;;;;;;;;;17.70;73.40;;;17.00;67.63;96193.81;4176532;34;20165;-83
2022/09/09 02:50:12;;;;;;;;;;;17.80;73.40;;;17.01;67.42;96200.13;4176908;34;19941;-83
2022/09/09 02:52:51;;;;;;;;;;;17.80;73.30;;;17.01;67.43;96197.38;4176925;33;19903;-83
2022/09/09 02:55:27;;;;;;;;;;;17.70;73.40;;;17.01;67.40;96189.06;4199832;33;19903;-83
2022/09/09 02:57:58;;;;;;;;;;;17.70;73.20;;;17.01;67.44;96189.06;4198668;33;19910;-83
2022/09/09 03:00:32;;;;;;;;;;;17.70;73.30;;;16.99;67.50;96183.03;4199561;33;20105;-83
2022/09/09 03:03:04;;;;;;;;;;;17.70;73.40;;;16.99;67.49;96186.63;4199970;33;19914;-83
2022/09/09 03:05:34;;;;;;;;;;;17.70;73.30;;;16.99;67.50;96189.41;4199912;33;19926;-83
2022/09/09 03:08:03;;;;;;;;;;;17.70;73.40;;;16.98;67.37;96190.53;4199445;33;19940;-83
2022/09/09 03:10:31;;;;;;;;;;;17.70;73.20;;;16.99;67.45;96191.34;4176560;34;19903;-83
2022/09/09 03:13:00;;;;;;;;;;;17.70;73.20;;;16.98;67.41;96182.22;4176720;33;20075;-83
2022/09/09 03:15:33;;;;;;;;;;;17.70;73.30;;;16.98;67.52;96192.47;4176656;34;19910;-83
2022/09/09 03:18:02;;;;;;;;;;;17.80;73.20;;;16.98;67.48;96186.94;4199409;33;19910;-83
2022/09/09 03:20:31;;;;;;;;;;;17.70;73.30;;;16.98;67.40;96189.69;4179615;34;19926;-83
2022/09/09 03:23:01;;;;;;;;;;;17.70;73.30;;;16.96;67.21;96186.44;4179018;33;20257;-83
2022/09/09 03:25:29;;;;;;;;;;;17.70;73.30;;;16.97;67.57;96193.63;4178821;34;20160;-83
2022/09/09 03:27:58;;;;;;;;;;;17.70;73.40;;;16.97;67.55;96193.63;4178648;34;19903;-83
2022/09/09 03:30:28;;;;;;;;;;;17.70;73.50;;;16.97;67.29;96199.94;4202050;33;19937;-83
2022/09/09 03:32:59;;;;;;;;;;;17.70;73.20;;;16.97;67.59;96194.41;4178940;33;19903;-83
2022/09/09 03:35:33;;;;;;;;;;;17.70;73.40;;;16.96;67.59;96200.28;4179009;34;19992;-83
2022/09/09 03:38:02;;;;;;;;;;;17.70;73.40;;;16.96;67.20;96191.97;4201551;33;19910;-83
2022/09/09 03:40:33;;;;;;;;;;;17.70;73.40;;;16.96;67.43;96194.75;4178839;34;20459;-83
2022/09/09 03:43:02;;;;;;;;;;;17.70;73.30;;;16.97;67.40;96207.44;4178864;33;20114;-83
2022/09/09 03:45:30;;;;;;;;;;;17.70;73.40;;;16.96;67.65;96208.56;4178845;34;20015;-83
2022/09/09 03:48:00;;;;;;;;;;;17.70;73.50;;;16.95;67.67;96199.44;4201673;33;20146;-83
2022/09/09 03:50:29;;;;;;;;;;;17.70;73.50;;;16.95;67.55;96201.41;4178827;34;20084;-84
2022/09/09 03:52:58;;;;;;;;;;;17.70;73.40;;;16.95;67.49;96204.16;4201835;33;19903;-83
2022/09/09 03:55:26;;;;;;;;;;;17.70;73.30;;;16.95;67.47;96201.41;4178504;34;20052;-83
2022/09/09 03:57:55;;;;;;;;;;;17.70;73.60;;;16.96;67.79;96203.03;4178240;34;20138;-83
2022/09/09 04:00:24;;;;;;;;;;;17.70;73.40;;;16.95;67.54;96199.44;4178592;34;19903;-83
2022/09/09 04:02:57;;;;;;;;;;;17.70;73.30;;;16.94;67.27;96197.81;4201839;33;20142;-83
2022/09/09 04:05:27;;;;;;;;;;;17.70;73.40;;;16.94;67.63;96195.03;4201685;33;19903;-83
2022/09/09 04:07:56;;;;;;;;;;;17.70;73.60;;;16.95;67.65;96195.88;4201289;33;19903;-83
2022/09/09 04:10:24;;;;;;;;;;;17.70;73.40;;;16.95;67.42;96193.09;4201768;33;20093;-83
2022/09/09 04:12:54;;;;;;;;;;;17.70;73.20;;;16.96;67.58;96203.03;4201781;33;19903;-83
2022/09/09 04:15:23;;;;;;;;;;;17.70;73.40;;;16.96;67.62;96200.28;4201622;33;20035;-83
2022/09/09 04:17:52;;;;;;;;;;;17.70;73.50;;;16.99;67.41;96196.88;4178085;34;19927;-83
2022/09/09 04:20:21;;;;;;;;;;;17.70;73.40;;;16.99;67.36;96197.69;4201684;33;19903;-82
2022/09/09 04:22:51;;;;;;;;;;;17.80;73.20;;;17.01;67.16;96202.91;4178377;33;19966;-82
2022/09/09 04:25:20;;;;;;;;;;;17.80;73.00;;;17.02;67.25;96202.59;4179380;34;20155;-83
2022/09/09 04:27:51;;;;;;;;;;;17.80;73.00;;;17.03;67.19;96206.19;4201126;33;19904;-83
2022/09/09 04:30:20;;;;;;;;;;;17.80;73.00;;;17.03;67.45;96203.41;4201280;33;19903;-83
2022/09/09 04:32:49;;;;;;;;;;;17.80;72.90;;;17.05;67.08;96205.84;4178324;33;20218;-83
2022/09/09 04:35:19;;;;;;;;;;;17.80;72.90;;;17.06;66.96;96213.84;4201465;33;20060;-83
2022/09/09 04:37:49;;;;;;;;;;;17.80;72.80;;;17.08;66.95;96211.59;4177870;34;19903;-83
2022/09/09 04:40:22;;;;;;;;;;;17.80;72.60;;;17.09;66.78;96213.25;4178230;34;20148;-83
2022/09/09 04:42:50;;;;;;;;;;;17.80;72.50;;;17.11;66.94;96215.69;4178262;33;19903;-82
2022/09/09 04:45:19;;;;;;;;;;;17.90;72.60;;;17.14;67.02;96218.63;4178194;34;19910;-83
2022/09/09 04:47:48;;;;;;;;;;;17.90;72.80;;;17.21;66.96;96220.16;4177571;34;20134;-83
2022/09/09 04:50:18;;;;;;;;;;;18.00;72.80;;;17.26;67.21;96208.97;4155339;34;19910;-83
2022/09/09 04:52:48;;;;;;;;;;;18.00;72.40;;;17.32;67.22;96199.41;4179204;33;19935;-82
2022/09/09 04:55:19;;;;;;;;;;;18.10;72.80;;;17.45;66.37;96204.06;4201194;33;20002;-82
2022/09/09 04:57:48;;;;;;;;;;;18.30;71.80;;;17.51;65.93;96202.00;4200640;33;19910;-82
2022/09/09 05:00:18;;;;;;;;;;;18.40;71.00;;;17.49;66.03;96205.06;4177910;34;19910;-82
2022/09/09 05:02:48;;;;;;;;;;;18.40;71.00;;;17.48;65.73;96220.06;4177844;33;19904;-82
2022/09/09 05:05:16;;;;;;;;;;;18.30;71.00;;;17.46;66.33;96216.78;4201016;33;19903;-82
2022/09/09 05:07:45;;;;;;;;;;;18.30;71.50;;;17.42;66.67;96224.06;4177391;34;19904;-82
2022/09/09 05:10:16;;;;;;;;;;;18.30;71.90;;;17.41;66.98;96225.19;4177808;34;20242;-82
2022/09/09 05:12:54;;;;;;;;;;;18.30;72.40;;;17.39;67.24;96238.53;4177997;33;19903;-82
2022/09/09 05:15:26;;;;;;;;;;;18.20;73.40;;;17.35;67.32;96245.00;4201038;33;19910;-82
2022/09/09 05:17:59;;;;;;;;;;;18.10;72.80;;;17.31;67.54;96247.59;4177292;34;19910;-82
2022/09/09 05:20:27;;;;;;;;;;;18.10;73.10;;;17.27;67.64;96257.63;4177798;34;20083;-82
2022/09/09 05:22:56;;;;;;;;;;;18.10;73.20;;;17.24;68.11;96252.72;4177767;33;19903;-82
2022/09/09 05:25:28;;;;;;;;;;;18.00;73.70;;;17.20;68.05;96263.59;4200858;33;19911;-82
2022/09/09 05:28:00;;;;;;;;;;;18.00;73.80;;;17.17;68.33;96270.56;4200290;33;19910;-82
2022/09/09 05:30:29;;;;;;;;;;;18.00;74.00;;;17.16;68.32;96288.31;4154789;34;19903;-82
2022/09/09 05:32:57;;;;;;;;;;;17.90;74.10;;;17.14;68.53;96279.50;4154774;34;19903;-82
2022/09/09 05:35:26;;;;;;;;;;;17.90;74.30;;;17.13;68.46;96280.63;4154750;34;19919;-82
2022/09/09 05:37:56;;;;;;;;;;;17.90;74.40;;;17.12;68.58;96273.44;4154357;34;19903;-83
2022/09/09 05:40:24;;;;;;;;;;;17.90;74.40;;;17.11;68.53;96282.06;4177296;34;20376;-82
2022/09/09 05:42:53;;;;;;;;;;;17.90;74.50;;;17.10;68.66;96270.19;4154121;34;20234;-82
2022/09/09 05:45:23;;;;;;;;;;;17.90;74.60;;;17.09;68.78;96289.84;4200793;33;19903;-83
2022/09/09 05:47:53;;;;;;;;;;;17.80;74.50;;;17.09;68.69;96284.31;4153897;34;19903;-83
2022/09/09 05:50:22;;;;;;;;;;;17.80;74.50;;;17.07;68.89;96292.94;4200722;33;20225;-82
2022/09/09 05:52:55;;;;;;;;;;;17.80;74.60;;;17.08;68.66;96294.59;4177256;33;19907;-82
2022/09/09 05:55:25;;;;;;;;;;;17.80;74.70;;;17.09;68.73;96307.28;4177489;34;20004;-83
2022/09/09 05:57:53;;;;;;;;;;;17.80;74.50;;;17.07;68.79;96298.47;4177892;34;19922;-82
2022/09/09 06:00:23;;;;;;;;;;;17.80;74.70;;;17.07;68.72;96292.94;4177433;34;19910;-84
2022/09/09 06:02:53;;;;;;;;;;;17.80;74.60;;;17.07;68.68;96292.94;4200350;33;20425;-82
2022/09/09 06:05:24;;;;;;;;;;;17.80;74.50;;;17.07;68.65;96284.66;4200490;33;19918;-83
2022/09/09 06:07:53;;;;;;;;;;;17.80;74.40;;;17.08;68.49;96271.63;4176740;34;20051;-83
2022/09/09 06:10:22;;;;;;;;;;;17.80;74.50;;;17.07;68.59;96265.28;4177339;34;20102;-85
2022/09/09 06:12:54;;;;;;;;;;;17.80;74.40;;;17.05;68.52;96278.59;4200406;33;20128;-86
2022/09/09 06:15:25;;;;;;;;;;;17.80;74.50;;;17.05;68.57;96261.16;4154556;34;20081;-85
2022/09/09 06:17:56;;;;;;;;;;;17.80;74.50;;;17.07;68.47;96256.97;4176682;34;19903;-86
2022/09/09 06:20:24;;;;;;;;;;;17.80;74.50;;;17.07;68.72;96247.84;4154620;34;19903;-86
2022/09/09 06:22:53;;;;;;;;;;;17.80;74.60;;;17.08;68.63;96255.03;4177155;33;20218;-85
2022/09/09 06:25:22;;;;;;;;;;;17.80;74.50;;;17.08;68.56;96252.25;4154407;34;20034;-85
2022/09/09 06:27:50;;;;;;;;;;;17.80;74.50;;;17.07;68.60;96251.44;4153790;34;19903;-85
2022/09/09 06:30:19;;;;;;;;;;;17.80;74.50;;;17.08;68.78;96244.78;4177070;34;19913;-85
2022/09/09 06:32:49;;;;;;;;;;;17.80;74.40;;;17.10;68.50;96245.31;4200031;33;19911;-85
2022/09/09 06:35:18;;;;;;;;;;;17.80;74.30;;;17.10;68.49;96245.31;4177010;34;20000;-85
2022/09/09 06:37:48;;;;;;;;;;;17.90;74.60;;;17.12;68.78;96245.78;4153943;34;20288;-85
2022/09/09 06:40:18;;;;;;;;;;;17.90;74.50;;;17.12;68.50;96244.97;4199923;33;19903;-85
2022/09/09 06:42:48;;;;;;;;;;;17.90;74.40;;;17.13;68.49;96243.84;4154101;34;20146;-85
2022/09/09 06:45:36;;;;;;;;;;;17.90;74.40;;;17.12;68.21;96242.22;4154248;34;19903;-85
2022/09/09 06:48:06;;;;;;;;;;;17.90;74.40;;;17.12;68.41;96254.09;4176434;34;20044;-85
2022/09/09 06:50:35;;;;;;;;;;;17.90;74.40;;;17.12;68.51;96270.69;4176996;34;19970;-85
2022/09/09 06:53:04;;;;;;;;;;;17.90;74.40;;;17.12;68.36;96256.84;4177399;33;20161;-85
2022/09/09 06:55:33;;;;;;;;;;;17.90;74.40;;;17.13;68.37;96277.84;4179470;34;19911;-85
2022/09/09 06:58:02;;;;;;;;;;;17.90;74.40;;;17.12;68.46;96267.13;4202240;33;20350;-85
2022/09/09 07:00:31;;;;;;;;;;;17.90;74.40;;;17.11;68.44;96271.81;4179566;33;20313;-85
2022/09/09 07:03:00;;;;;;;;;;;17.90;74.40;;;17.12;68.70;96278.97;4156364;34;19986;-85
2022/09/09 07:05:31;;;;;;;;;;;17.90;74.40;;;17.11;68.36;96280.09;4202678;33;20043;-85
2022/09/09 07:07:59;;;;;;;;;;;17.90;74.40;;;17.11;68.45;96287.59;4178676;34;19970;-85
2022/09/09 07:10:29;;;;;;;;;;;17.90;74.40;;;17.12;68.35;96280.94;4179295;34;19911;-85
2022/09/09 07:12:57;;;;;;;;;;;17.90;74.40;;;17.10;68.25;96292.31;4179293;33;19903;-85
2022/09/09 07:15:27;;;;;;;;;;;17.90;74.40;;;17.11;68.48;96285.63;4179206;34;19903;-85
2022/09/09 07:17:56;;;;;;;;;;;17.90;74.40;;;17.12;68.34;96278.19;4178705;34;20147;-85
2022/09/09 07:20:25;;;;;;;;;;;17.90;74.30;;;17.11;68.47;96273.78;4202390;33;19903;-85
2022/09/09 07:22:58;;;;;;;;;;;17.90;74.40;;;17.11;68.71;96293.94;4179124;33;19913;-86
2022/09/09 07:25:29;;;;;;;;;;;17.90;74.40;;;17.11;68.47;96305.00;4179372;34;20105;-86
2022/09/09 07:27:59;;;;;;;;;;;17.90;74.40;;;17.08;68.50;96310.34;4155841;34;20222;-86
2022/09/09 07:30:28;;;;;;;;;;;17.90;74.40;;;17.09;68.40;96304.53;4202398;33;19910;-86
2022/09/09 07:32:59;;;;;;;;;;;17.90;74.40;;;17.10;68.33;96297.88;4156225;34;19903;-87
2022/09/09 07:35:27;;;;;;;;;;;17.80;74.20;;;17.11;68.45;96305.00;4156263;34;19910;-87
2022/09/09 07:37:58;;;;;;;;;;;17.90;74.40;;;17.11;68.53;96312.50;4178578;33;20347;-86
2022/09/09 07:40:26;;;;;;;;;;;17.90;74.40;;;17.12;68.49;96306.63;4179268;34;20130;-86
2022/09/09 07:42:55;;;;;;;;;;;17.90;74.40;;;17.11;68.38;96305.00;4178971;33;19907;-87
2022/09/09 07:45:24;;;;;;;;;;;17.90;74.40;;;17.11;68.44;96305.00;4179048;34;19903;-87
2022/09/09 07:47:53;;;;;;;;;;;17.90;74.40;;;17.09;68.46;96295.38;4201658;33;20157;-87
2022/09/09 07:50:22;;;;;;;;;;;17.90;74.40;;;17.12;68.53;96294.78;4179061;34;20142;-87
2022/09/09 07:52:53;;;;;;;;;;;17.90;74.40;;;17.12;68.45;96290.03;4201986;33;20011;-86
2022/09/09 07:55:25;;;;;;;;;;;17.90;74.40;;;17.11;68.13;96284.84;4178997;34;20107;-87
2022/09/09 07:57:54;;;;;;;;;;;17.90;74.30;;;17.09;68.89;96274.09;4201711;33;19955;-87
2022/09/09 08:00:23;;;;;;;;;;;17.90;74.30;;;17.12;68.44;96278.19;4202024;33;19915;-87
2022/09/09 08:02:56;;;;;;;;;;;17.90;74.40;;;17.12;68.36;96281.75;4155876;34;20114;-87
2022/09/09 08:05:25;;;;;;;;;;;17.90;74.40;;;17.13;68.29;96282.59;4201639;33;19910;-87
2022/09/09 08:07:53;;;;;;;;;;;17.90;74.30;;;17.13;68.35;96283.38;4178208;34;20145;-87
2022/09/09 08:10:23;;;;;;;;;;;17.90;74.30;;;17.13;68.21;96280.63;4201902;33;19911;-87
2022/09/09 08:12:53;;;;;;;;;;;17.90;74.20;;;17.15;68.32;96281.13;4155823;34;19910;-87
2022/09/09 08:15:23;;;;;;;;;;;17.90;74.20;;;17.16;68.43;96279.19;4155949;34;20237;-87
2022/09/09 08:17:51;;;;;;;;;;;17.90;74.20;;;17.17;68.26;96276.13;4201338;33;20284;-87
2022/09/09 08:20:20;;;;;;;;;;;17.90;74.20;;;17.18;68.21;96261.16;4178692;34;19903;-87
2022/09/09 08:22:49;;;;;;;;;;;17.90;74.10;;;17.18;68.16;96261.16;4155635;34;19906;-87
2022/09/09 08:25:18;;;;;;;;;;;17.90;74.00;;;17.21;68.15;96261.66;4201697;33;20133;-87
2022/09/09 08:27:48;;;;;;;;;;;17.90;74.00;;;17.22;68.24;96261.34;4178039;34;19910;-87
2022/09/09 08:30:17;;;;;;;;;;;18.00;74.00;;;17.23;68.08;96262.97;4201712;33;19910;-87
2022/09/09 08:32:45;;;;;;;;;;;18.00;73.90;;;17.25;68.03;96254.34;4178405;33;19984;-87
2022/09/09 08:35:14;;;;;;;;;;;18.00;73.80;;;17.26;68.07;96256.00;4178604;34;20330;-86
2022/09/09 08:37:43;;;;;;;;;;;18.00;73.80;;;17.28;67.92;96248.19;4177987;34;19911;-87
2022/09/09 08:40:14;;;;;;;;;;;18.00;73.70;;;17.27;67.91;96244.63;4155708;34;20139;-87
2022/09/09 08:42:42;;;;;;;;;;;18.00;73.70;;;17.27;67.93;96246.56;4178163;33;19903;-86
2022/09/09 08:45:21;;;;;;;;;;;18.00;73.60;;;17.27;67.81;96249.31;4178335;34;19926;-86
2022/09/09 08:48:01;;;;;;;;;;;18.00;73.70;;;17.27;67.83;96241.03;4154980;34;20167;-86
2022/09/09 08:50:33;;;;;;;;;;;18.00;73.70;;;17.27;68.05;96235.50;4178285;34;20035;-86
2022/09/09 08:53:11;;;;;;;;;;;18.00;73.70;;;17.27;68.11;96241.03;4154761;34;19903;-86
2022/09/09 08:55:42;;;;;;;;;;;18.00;73.70;;;17.26;67.97;96222.78;4178261;34;19903;-86
2022/09/09 08:58:15;;;;;;;;;;;18.00;73.70;;;17.25;68.01;96227.53;4154857;34;19904;-86
2022/09/09 09:01:01;;;;;;;;;;;18.00;73.70;;;17.26;67.92;96225.56;4178275;34;20177;-86
2022/09/09 09:03:41;;;;;;;;;;;18.00;73.70;;;17.27;68.02;96221.66;4201155;33;20096;-86
2022/09/09 09:06:27;;;;;;;;;;;18.00;73.70;;;17.27;67.83;96227.19;4178209;34;19903;-86
2022/09/09 09:09:01;;;;;;;;;;;18.00;73.70;;;17.28;67.90;96220.53;4154839;34;20118;-86
2022/09/09 09:11:37;;;;;;;;;;;18.00;73.70;;;17.29;67.62;96222.16;4155106;34;19903;-87
2022/09/09 09:14:11;;;;;;;;;;;18.00;73.60;;;17.29;67.84;96217.47;4155064;34;19945;-86
2022/09/09 09:16:47;;;;;;;;;;;18.00;73.60;;;17.29;67.59;96219.41;4177214;34;20218;-86
2022/09/09 09:19:17;;;;;;;;;;;18.00;73.60;;;17.31;67.93;96206.09;4177928;34;19903;-86
2022/09/09 09:21:51;;;;;;;;;;;18.00;73.60;;;17.30;67.80;96199.72;4155184;34;20364;-86
2022/09/09 09:24:21;;;;;;;;;;;18.10;73.70;;;17.31;67.85;96192.25;4177793;34;20241;-86
2022/09/09 09:26:50;;;;;;;;;;;18.00;73.60;;;17.30;67.70;96201.69;4154484;34;20142;-86
2022/09/09 09:29:21;;;;;;;;;;;18.00;73.50;;;17.31;67.89;96192.25;4178733;34;19903;-87
2022/09/09 09:31:55;;;;;;;;;;;18.10;73.70;;;17.30;67.64;96198.91;4177760;33;20053;-86
2022/09/09 09:34:25;;;;;;;;;;;18.10;73.70;;;17.31;67.87;96193.03;4154923;34;19903;-86
2022/09/09 09:36:56;;;;;;;;;;;18.10;73.70;;;17.31;68.05;96195.81;4177371;34;19910;-86
2022/09/09 09:39:27;;;;;;;;;;;18.10;73.70;;;17.31;67.76;96189.47;4177706;34;19903;-86
2022/09/09 09:42:01;;;;;;;;;;;18.10;73.80;;;17.31;67.96;96186.72;4200981;33;20119;-86
2022/09/09 09:44:32;;;;;;;;;;;18.10;73.80;;;17.31;67.86;96186.72;4153981;34;20113;-86
2022/09/09 09:47:14;;;;;;;;;;;18.10;73.80;;;17.31;68.10;96186.72;4177121;34;19983;-86
2022/09/09 09:49:55;;;;;;;;;;;18.10;73.80;;;17.31;68.04;96186.72;4177576;34;19910;-86
2022/09/09 09:52:25;;;;;;;;;;;18.00;73.70;;;17.30;67.94;96180.34;4193488;33;19915;-86
2022/09/09 09:54:54;;;;;;;;;;;18.10;73.70;;;17.31;68.08;96192.25;4177658;34;20342;-86
2022/09/09 09:57:27;;;;;;;;;;;18.00;73.60;;;17.31;67.90;96197.78;4177160;34;20150;-86
2022/09/09 10:00:08;;;;;;;;;;;18.00;73.60;;;17.31;67.89;96203.31;4154695;34;20081;-86
2022/09/09 10:02:45;;;;;;;;;;;18.10;73.70;;;17.32;67.93;96199.41;4200659;33;20219;-86
2022/09/09 10:05:22;;;;;;;;;;;18.10;73.70;;;17.31;67.93;96197.78;4177349;34;19903;-86
2022/09/09 10:08:05;;;;;;;;;;;18.10;73.70;;;17.33;67.85;96195.53;4176993;34;19903;-86
2022/09/09 10:10:47;;;;;;;;;;;18.10;73.60;;;17.32;68.20;96200.22;4178368;34;19903;-86
2022/09/09 10:13:21;;;;;;;;;;;18.10;73.60;;;17.32;67.65;96182.81;4154494;34;19979;-86
2022/09/09 10:15:58;;;;;;;;;;;18.10;73.70;;;17.34;67.91;96186.09;4177192;34;19910;-86
2022/09/09 10:18:40;;;;;;;;;;;18.10;73.60;;;17.36;67.73;96183.00;4176827;34;20130;-86
2022/09/09 10:21:20;;;;;;;;;;;18.10;73.60;;;17.37;67.86;96196.50;4177342;33;20069;-85
2022/09/09 10:24:02;;;;;;;;;;;18.10;73.60;;;17.38;67.69;96195.38;4154507;34;20108;-85
2022/09/09 10:26:39;;;;;;;;;;;18.10;73.40;;;17.39;67.66;96210.03;4177408;34;19926;-85
2022/09/09 10:29:28;;;;;;;;;;;18.10;73.50;;;17.39;67.75;96221.91;4176483;34;19926;-85
2022/09/09 10:32:05;;;;;;;;;;;18.10;73.40;;;17.40;67.59;96220.78;4177031;33;19907;-86
2022/09/09 10:34:50;;;;;;;;;;;18.10;73.40;;;17.40;67.73;96211.69;4200293;33;20126;-85
2022/09/09 10:41:38;;;;;;;;;;;18.20;73.40;;;17.39;67.78;96244.06;4177017;33;19906;-86
2022/09/09 10:44:28;;;;;;;;;;;18.10;73.40;;;17.38;67.79;96247.94;4200087;33;19989;-86
2022/09/09 10:47:17;;;;;;;;;;;18.10;73.50;;;17.37;67.67;96246.31;4176714;34;19903;-85
2022/09/09 10:50:15;;;;;;;;;;;18.10;73.50;;;17.36;67.72;96247.47;4148994;34;23211;-84
2022/09/09 10:52:50;;;;;;;;;;;18.10;73.50;;;17.36;67.63;96263.25;4126736;34;19910;-85
2022/09/09 10:55:20;;;;;;;;;;;18.10;73.60;;;17.35;67.73;96261.59;4149733;34;20071;-85
2022/09/09 10:57:49;;;;;;;;;;;18.10;73.60;;;17.35;67.62;96265.22;4126398;34;20109;-85
2022/09/09 11:00:20;;;;;;;;;;;18.10;73.70;;;17.35;67.97;96269.91;4149495;34;20203;-85
2022/09/09 11:02:52;;;;;;;;;;;18.10;73.70;;;17.34;67.99;96274.63;4149373;34;20252;-85
2022/09/09 11:05:24;;;;;;;;;;;18.10;73.70;;;17.33;67.92;96278.53;4126896;34;20174;-85
2022/09/09 11:07:56;;;;;;;;;;;18.10;73.70;;;17.32;67.93;96288.75;4126359;34;19903;-85
2022/09/09 11:10:30;;;;;;;;;;;18.10;73.80;;;17.32;67.99;96297.06;4172329;34;20126;-85
2022/09/09 11:13:02;;;;;;;;;;;18.10;73.90;;;17.30;68.10;96291.03;4172235;33;20454;-84
2022/09/09 11:15:36;;;;;;;;;;;18.10;73.90;;;17.30;68.04;96302.09;4149177;34;19903;-85
2022/09/09 11:18:05;;;;;;;;;;;18.00;73.80;;;17.30;68.39;96295.75;4149045;34;20107;-85
2022/09/09 11:20:36;;;;;;;;;;;18.00;73.90;;;17.27;68.08;96296.38;4149147;34;20267;-85
2022/09/09 11:23:06;;;;;;;;;;;18.00;73.90;;;17.28;68.18;96290.53;4149296;34;19999;-85
2022/09/09 11:25:38;;;;;;;;;;;18.10;74.00;;;17.28;68.06;96292.47;4172129;34;20147;-85
2022/09/09 11:28:33;;;;;;;;;;;18.00;73.90;;;17.28;68.18;96282.25;4148905;34;19903;-86
2022/09/09 11:31:15;;;;;;;;;;;18.00;74.00;;;17.28;68.34;96285.00;4149220;34;20196;-86
2022/09/09 11:33:57;;;;;;;;;;;18.00;74.00;;;17.26;68.25;96300.25;4172322;34;20238;-86
2022/09/09 11:37:09;;;;;;;;;;;18.00;74.10;;;17.26;68.31;96305.78;4149184;34;20273;-85
2022/09/09 11:40:00;;;;;;;;;;;18.00;74.10;;;17.25;68.42;96288.38;4149293;34;19911;-85
2022/09/09 11:42:28;;;;;;;;;;;18.00;74.30;;;17.25;68.70;96280.09;4174304;33;19904;-86
2022/09/09 11:44:57;;;;;;;;;;;18.00;74.20;;;17.24;68.45;96291.44;4171739;34;20013;-86
2022/09/09 11:47:29;;;;;;;;;;;18.00;74.30;;;17.24;68.51;96291.44;4155818;34;19903;-85